Time;durP1;ratioP1;P1;durP2;ratioP2;P2;SDS_P1;SDS_P2;PMS_P1;PMS_P2;Temp;Humidity;BMP_temperature;BMP_pressure;BME280_temperature;BME280_humidity;BME280_pressure;Samples;Min_cycle;Max_cycle;Signal;HPM_P1;HPM_P2
2021/08/11 00:00:13;;;;;;;5.90;3.80;;;;;;;23.39;60.95;100236.63;117363;1186;21852;-66
2021/08/11 00:02:41;;;;;;;5.00;4.10;;;;;;;23.37;60.90;100232.13;117511;1185;21900;-67
2021/08/11 00:05:10;;;;;;;6.70;3.90;;;;;;;23.36;60.87;100229.81;117494;1183;21892;-68
2021/08/11 00:07:41;;;;;;;9.80;4.90;;;;;;;23.35;60.86;100230.64;117460;1182;21850;-68
2021/08/11 00:10:09;;;;;;;6.00;3.90;;;;;;;23.26;60.99;100231.01;117520;1176;21851;-68
2021/08/11 00:12:38;;;;;;;5.70;4.30;;;;;;;23.23;61.06;100230.90;117568;1184;22965;-69
2021/08/11 00:15:07;;;;;;;5.80;3.90;;;;;;;23.22;61.01;100229.67;117407;1181;21860;-67
2021/08/11 00:17:45;;;;;;;7.60;4.60;;;;;;;23.20;60.87;100232.66;117453;1182;24156;-68
2021/08/11 00:20:14;;;;;;;6.50;4.40;;;;;;;23.16;60.88;100235.63;117505;1183;21854;-69
2021/08/11 00:22:42;;;;;;;6.50;4.30;;;;;;;23.10;60.94;100237.96;117497;1186;21857;-69
2021/08/11 00:25:11;;;;;;;6.30;4.70;;;;;;;23.07;61.02;100232.48;117400;1184;22618;-68
2021/08/11 00:27:39;;;;;;;6.00;3.60;;;;;;;23.05;61.21;100234.36;117417;1183;23532;-66
2021/08/11 00:30:16;;;;;;;8.30;4.80;;;;;;;23.02;61.22;100234.18;117416;1183;21863;-68
2021/08/11 00:32:45;;;;;;;7.40;4.20;;;;;;;23.02;61.06;100234.22;117438;1183;21845;-68
2021/08/11 00:35:14;;;;;;;6.80;4.00;;;;;;;23.01;60.97;100236.41;117482;1185;21854;-66
2021/08/11 00:37:42;;;;;;;6.60;4.50;;;;;;;22.98;61.14;100235.16;117423;1183;21859;-68
2021/08/11 00:40:12;;;;;;;5.40;4.00;;;;;;;22.98;61.12;100234.82;117481;1182;21841;-66
2021/08/11 00:42:40;;;;;;;7.60;3.80;;;;;;;22.96;61.09;100238.75;117546;1185;21854;-67
2021/08/11 00:45:08;;;;;;;9.10;4.60;;;;;;;22.95;61.19;100240.07;117617;1182;21861;-68
2021/08/11 00:47:37;;;;;;;5.50;4.20;;;;;;;22.96;61.17;100240.88;117532;1185;22980;-67
2021/08/11 00:50:08;;;;;;;6.70;3.90;;;;;;;22.97;61.14;100246.02;117309;1185;21845;-69
2021/08/11 00:52:37;;;;;;;6.50;4.20;;;;;;;22.93;61.14;100250.74;117351;1186;23627;-65
2021/08/11 00:55:15;;;;;;;5.20;4.20;;;;;;;22.90;61.07;100250.02;117449;1179;21845;-65
2021/08/11 00:57:43;;;;;;;6.60;4.50;;;;;;;22.85;61.04;100248.00;117561;1182;23461;-67
2021/08/11 01:00:13;;;;;;;6.90;4.10;;;;;;;22.81;61.01;100245.23;117441;1185;21842;-66
2021/08/11 01:02:42;;;;;;;7.90;4.10;;;;;;;22.78;61.14;100239.74;117419;1182;23329;-67
2021/08/11 01:05:11;;;;;;;6.90;4.00;;;;;;;22.79;61.01;100241.79;117540;1183;24136;-68
2021/08/11 01:07:39;;;;;;;6.00;4.00;;;;;;;22.79;60.92;100238.44;117453;1186;21875;-68
2021/08/11 01:10:08;;;;;;;5.10;3.90;;;;;;;22.75;61.08;100239.04;117543;1182;21895;-69
2021/08/11 01:12:36;;;;;;;7.20;4.20;;;;;;;22.70;61.01;100240.96;117501;1183;22979;-71
2021/08/11 01:15:05;;;;;;;5.50;3.70;;;;;;;22.65;61.08;100244.00;117475;1176;21861;-64
2021/08/11 01:17:34;;;;;;;6.50;4.60;;;;;;;22.62;61.17;100246.69;117284;1185;22939;-70
2021/08/11 01:20:04;;;;;;;6.10;4.10;;;;;;;22.58;61.29;100254.08;117393;1185;21855;-70
2021/08/11 01:23:03;;;;;;;6.80;3.80;;;;;;;22.56;61.10;100252.03;117454;1185;23634;-71
2021/08/11 01:25:34;;;;;;;6.10;4.00;;;;;;;22.53;61.17;100256.52;117400;1185;21584;-65
2021/08/11 01:28:08;;;;;;;8.30;4.50;;;;;;;22.53;61.07;100256.73;117350;1186;23458;-71
2021/08/11 01:30:40;;;;;;;6.80;4.20;;;;;;;22.54;61.03;100255.55;117506;1182;21895;-74
2021/08/11 01:33:45;;;;;;;4.80;3.50;;;;;;;22.56;60.90;100260.79;117495;1183;21842;-71
2021/08/11 01:36:28;;;;;;;6.70;3.80;;;;;;;22.62;60.75;100262.05;117502;1183;21892;-65
2021/08/11 01:39:06;;;;;;;6.40;3.90;;;;;;;22.48;60.89;100264.89;117534;1186;21855;-72
2021/08/11 01:41:38;;;;;;;6.30;3.70;;;;;;;22.38;61.08;100263.54;117383;1183;23500;-65
2021/08/11 01:44:07;;;;;;;5.70;3.90;;;;;;;22.34;61.04;100265.20;117515;1184;22881;-72
2021/08/11 01:46:40;;;;;;;6.70;4.10;;;;;;;22.31;60.97;100268.98;117491;1182;21856;-72
2021/08/11 01:49:09;;;;;;;7.60;4.50;;;;;;;22.25;61.17;100269.35;117467;1183;23553;-73
2021/08/11 01:51:39;;;;;;;6.30;3.90;;;;;;;22.14;61.36;100268.75;117407;1182;21882;-73
2021/08/11 01:54:08;;;;;;;7.30;4.00;;;;;;;22.05;61.62;100270.93;117373;1185;21851;-65
2021/08/11 01:56:38;;;;;;;5.60;3.70;;;;;;;22.11;61.67;100273.98;117437;1183;21854;-73
2021/08/11 01:59:07;;;;;;;4.80;3.70;;;;;;;22.15;61.24;100271.25;117395;1186;21892;-67
2021/08/11 02:01:40;;;;;;;6.60;3.90;;;;;;;22.14;61.20;100271.66;117543;1182;21897;-65
2021/08/11 02:04:08;;;;;;;7.20;3.70;;;;;;;22.11;61.20;100272.71;117507;1183;21842;-71
2021/08/11 02:06:37;;;;;;;5.00;3.70;;;;;;;22.10;61.10;100272.05;117623;1183;23531;-72
2021/08/11 02:09:05;;;;;;;5.20;3.90;;;;;;;22.04;61.23;100273.89;117446;1182;23452;-67
2021/08/11 02:11:37;;;;;;;6.80;3.90;;;;;;;21.94;61.44;100273.61;117535;1185;21852;-65
2021/08/11 02:14:07;;;;;;;7.50;4.10;;;;;;;21.90;61.50;100272.45;117468;1182;21883;-65
2021/08/11 02:16:39;;;;;;;5.30;3.60;;;;;;;21.89;61.48;100273.17;117531;1185;21854;-64
2021/08/11 02:19:08;;;;;;;8.80;4.10;;;;;;;21.92;61.33;100271.92;117549;1183;22080;-72
2021/08/11 02:21:37;;;;;;;5.70;4.50;;;;;;;21.94;61.27;100269.16;117529;1184;21857;-65
2021/08/11 02:24:07;;;;;;;5.60;3.90;;;;;;;21.93;61.15;100271.48;117550;1186;21854;-65
2021/08/11 02:27:10;;;;;;;9.30;4.90;;;;;;;21.95;61.12;100269.21;117627;1183;22891;-65
2021/08/11 02:29:51;;;;;;;6.70;4.60;;;;;;;21.93;61.12;100270.05;117465;1183;23432;-72
2021/08/11 02:32:27;;;;;;;5.80;4.10;;;;;;;21.93;61.31;100275.80;117367;1185;21864;-71
2021/08/11 02:35:11;;;;;;;8.20;4.00;;;;;;;21.95;61.02;100278.16;117419;1185;21873;-66
2021/08/11 02:37:49;;;;;;;6.00;3.70;;;;;;;21.97;61.04;100279.86;117392;1183;21855;-69
2021/08/11 02:40:20;;;;;;;5.20;3.60;;;;;;;21.99;60.97;100281.35;117352;1183;22750;-71
2021/08/11 02:42:56;;;;;;;5.70;4.00;;;;;;;21.98;60.94;100285.64;117408;1182;21864;-71
2021/08/11 02:45:24;;;;;;;6.60;4.00;;;;;;;21.98;60.90;100286.55;117460;1185;21845;-69
2021/08/11 02:47:52;;;;;;;5.50;4.10;;;;;;;21.98;60.92;100288.18;117331;1186;21861;-65
2021/08/11 02:50:20;;;;;;;5.90;4.50;;;;;;;21.94;60.87;100286.80;117400;1182;21845;-73
2021/08/11 02:52:48;;;;;;;7.80;4.00;;;;;;;21.92;60.95;100285.66;117343;1185;23432;-66
2021/08/11 02:55:18;;;;;;;4.80;3.60;;;;;;;21.89;61.12;100287.50;117446;1183;21860;-72
2021/08/11 02:57:46;;;;;;;5.40;4.10;;;;;;;21.92;60.98;100286.80;117383;1185;21862;-66
2021/08/11 03:00:16;;;;;;;5.50;4.20;;;;;;;21.90;60.96;100286.55;117264;1185;21878;-72
2021/08/11 03:02:44;;;;;;;6.20;4.10;;;;;;;21.92;61.04;100287.13;117334;1176;21862;-65
2021/08/11 03:05:12;;;;;;;7.10;4.10;;;;;;;21.97;60.89;100287.32;117421;1185;23435;-65
2021/08/11 03:07:41;;;;;;;6.60;4.30;;;;;;;21.95;61.08;100287.48;117385;1186;23611;-72
2021/08/11 03:10:11;;;;;;;10.10;4.40;;;;;;;21.95;60.99;100285.34;117366;1185;22911;-64
2021/08/11 03:12:39;;;;;;;8.30;4.50;;;;;;;21.96;60.95;100286.33;117347;1182;21866;-65
2021/08/11 03:15:07;;;;;;;5.70;4.20;;;;;;;21.97;60.89;100288.22;117316;1185;21852;-64
2021/08/11 03:17:37;;;;;;;6.80;4.30;;;;;;;22.01;60.79;100288.55;117412;1185;22867;-65
2021/08/11 03:20:07;;;;;;;6.30;4.80;;;;;;;22.05;60.84;100290.77;117418;1184;22089;-66
2021/08/11 03:22:35;;;;;;;7.40;5.00;;;;;;;22.11;60.83;100296.52;117443;1184;21881;-65
2021/08/11 03:25:04;;;;;;;10.00;4.30;;;;;;;22.16;60.78;100294.19;117466;1183;21852;-72
2021/08/11 03:27:32;;;;;;;6.80;4.40;;;;;;;22.16;60.77;100292.45;117404;1182;21859;-73
2021/08/11 03:30:00;;;;;;;7.60;4.30;;;;;;;22.15;60.96;100294.61;117329;1182;23424;-73
2021/08/11 03:32:28;;;;;;;7.90;4.70;;;;;;;22.23;60.82;100292.19;117434;1185;21883;-73
2021/08/11 03:34:57;;;;;;;11.00;5.30;;;;;;;22.31;60.71;100292.04;117494;1182;21854;-76
2021/08/11 03:37:25;;;;;;;11.30;5.70;;;;;;;22.39;60.64;100292.95;117512;1184;21920;-66
2021/08/11 03:39:55;;;;;;;10.20;4.70;;;;;;;22.51;60.45;100293.70;117394;1185;21855;-72
2021/08/11 03:42:24;;;;;;;6.80;4.70;;;;;;;22.55;60.48;100298.96;117519;1185;21854;-73
2021/08/11 03:44:52;;;;;;;8.90;4.50;;;;;;;22.51;60.62;100300.08;117552;1183;23432;-65
2021/08/11 03:47:20;;;;;;;10.80;4.40;;;;;;;22.53;60.61;100296.41;117430;1183;22615;-75
2021/08/11 03:49:50;;;;;;;8.40;4.80;;;;;;;22.59;60.52;100297.64;117548;1185;21855;-71
2021/08/11 03:52:18;;;;;;;7.70;4.80;;;;;;;22.66;60.34;100300.05;117437;1182;21863;-66
2021/08/11 03:54:47;;;;;;;8.40;4.80;;;;;;;22.72;60.30;100298.05;117460;1183;21854;-65
2021/08/11 03:57:15;;;;;;;6.20;4.20;;;;;;;22.77;60.27;100295.05;117475;1182;21860;-71
2021/08/11 03:59:43;;;;;;;9.40;4.40;;;;;;;22.83;60.16;100298.77;117410;1183;21855;-66
2021/08/11 04:02:12;;;;;;;8.90;4.90;;;;;;;22.93;60.19;100293.69;117523;1182;21851;-64
2021/08/11 04:04:40;;;;;;;7.30;4.90;;;;;;;23.05;59.64;100290.02;117464;1182;21863;-64
2021/08/11 04:07:16;;;;;;;8.40;4.20;;;;;;;23.13;59.43;100287.35;117501;1183;23311;-66
2021/08/11 04:09:44;;;;;;;8.70;4.70;;;;;;;23.21;59.19;100286.98;117363;1186;21855;-65
2021/08/11 04:12:13;;;;;;;7.50;4.60;;;;;;;23.31;58.84;100288.67;117548;1182;21870;-71
2021/08/11 04:14:42;;;;;;;6.40;4.10;;;;;;;23.40;58.63;100285.98;117409;1185;21857;-74
2021/08/11 04:17:12;;;;;;;7.90;4.70;;;;;;;23.45;58.37;100286.84;117526;1182;23887;-69
2021/08/11 04:19:42;;;;;;;6.50;4.20;;;;;;;23.55;58.06;100287.30;117609;1182;22506;-70
2021/08/11 04:22:24;;;;;;;6.60;4.60;;;;;;;23.56;58.16;100283.46;117426;1185;23506;-69
2021/08/11 04:24:52;;;;;;;9.10;4.20;;;;;;;23.54;58.08;100281.10;117535;1185;22722;-69
2021/08/11 04:27:21;;;;;;;8.50;4.50;;;;;;;23.55;57.90;100277.23;117445;1185;21854;-64
2021/08/11 04:29:49;;;;;;;6.60;4.20;;;;;;;23.58;57.78;100280.45;117385;1184;21888;-66
2021/08/11 04:32:17;;;;;;;8.30;4.50;;;;;;;23.62;57.64;100278.55;117479;1186;21855;-66
2021/08/11 04:34:46;;;;;;;6.80;4.70;;;;;;;23.70;57.52;100273.71;117478;1182;21855;-69
2021/08/11 04:37:17;;;;;;;7.80;5.00;;;;;;;23.78;57.26;100276.03;117527;1183;21864;-71
2021/08/11 04:39:45;;;;;;;9.20;5.10;;;;;;;23.89;57.01;100275.46;117573;1185;22980;-73
2021/08/11 04:42:13;;;;;;;7.60;4.40;;;;;;;23.99;56.90;100280.17;117452;1186;21883;-64
2021/08/11 04:44:41;;;;;;;23.20;5.90;;;;;;;24.13;56.68;100282.04;117485;1183;21855;-63
2021/08/11 04:47:10;;;;;;;23.30;5.30;;;;;;;24.22;56.66;100276.05;117411;1185;21852;-73
2021/08/11 04:49:38;;;;;;;8.60;4.80;;;;;;;24.28;56.64;100276.55;117466;1185;21858;-67
2021/08/11 04:52:06;;;;;;;6.10;4.10;;;;;;;24.38;56.41;100275.44;117538;1176;21851;-73
2021/08/11 04:54:34;;;;;;;7.20;4.40;;;;;;;24.56;55.80;100272.02;117448;1182;21871;-67
2021/08/11 04:57:04;;;;;;;6.40;4.10;;;;;;;24.73;55.38;100273.80;117519;1182;21855;-70
2021/08/11 04:59:33;;;;;;;6.30;3.50;;;;;;;24.84;55.09;100275.95;117584;1183;23576;-66
2021/08/11 05:02:01;;;;;;;5.00;3.90;;;;;;;24.99;54.74;100278.94;117485;1182;21842;-69
2021/08/11 05:04:30;;;;;;;6.30;3.80;;;;;;;25.08;54.63;100279.17;117526;1182;21844;-72
2021/08/11 05:06:58;;;;;;;4.60;3.40;;;;;;;25.16;54.22;100282.15;117493;1185;21867;-66
2021/08/11 05:09:26;;;;;;;5.40;3.80;;;;;;;25.25;54.08;100283.09;117479;1182;21858;-71
2021/08/11 05:11:54;;;;;;;6.90;3.70;;;;;;;25.44;53.77;100288.38;117518;1182;21854;-65
2021/08/11 05:14:22;;;;;;;4.50;3.40;;;;;;;25.61;53.75;100287.91;117450;1182;21864;-71
2021/08/11 05:16:50;;;;;;;6.40;3.80;;;;;;;25.79;53.78;100284.72;117565;1184;21910;-64
2021/08/11 05:19:18;;;;;;;5.10;3.50;;;;;;;25.96;53.73;100281.27;117372;1182;22754;-66
2021/08/11 05:21:49;;;;;;;7.50;4.10;;;;;;;26.04;53.27;100278.33;117458;1183;23429;-65
2021/08/11 05:24:17;;;;;;;6.10;4.40;;;;;;;26.21;53.26;100284.21;117375;1183;21866;-64
2021/08/11 05:26:46;;;;;;;6.70;4.40;;;;;;;26.44;52.31;100282.23;117486;1185;21899;-74
2021/08/11 05:29:18;;;;;;;6.40;4.20;;;;;;;26.53;51.95;100283.67;117385;1183;21854;-75
2021/08/11 05:31:46;;;;;;;6.00;3.80;;;;;;;26.65;51.90;100282.83;117498;1185;21864;-71
2021/08/11 05:34:15;;;;;;;5.30;3.60;;;;;;;26.74;52.02;100283.89;117514;1182;22870;-71
2021/08/11 05:36:43;;;;;;;5.40;3.40;;;;;;;26.94;51.39;100283.97;117429;1182;23432;-66
2021/08/11 05:39:11;;;;;;;6.30;4.30;;;;;;;27.02;50.96;100286.14;117428;1182;23556;-66
2021/08/11 05:41:39;;;;;;;12.20;4.90;;;;;;;27.09;50.86;100289.40;117444;1185;21854;-66
2021/08/11 05:44:08;;;;;;;4.60;3.70;;;;;;;27.16;50.69;100292.94;117499;1185;21851;-75
2021/08/11 05:46:36;;;;;;;6.10;3.60;;;;;;;27.24;50.46;100297.52;117486;1183;22979;-67
2021/08/11 05:49:05;;;;;;;6.50;3.40;;;;;;;27.35;50.06;100299.31;117509;1176;21851;-65
2021/08/11 05:51:34;;;;;;;7.30;3.40;;;;;;;27.43;49.96;100301.29;117542;1179;21850;-66
2021/08/11 05:54:03;;;;;;;10.90;4.80;;;;;;;27.56;49.81;100299.55;117528;1183;21855;-65
2021/08/11 05:56:34;;;;;;;6.10;4.60;;;;;;;27.71;49.39;100299.52;117519;1183;23454;-72
2021/08/11 05:59:02;;;;;;;7.40;4.70;;;;;;;27.75;49.30;100297.52;117381;1184;21855;-66
2021/08/11 06:01:30;;;;;;;15.70;8.40;;;;;;;27.89;49.34;100295.96;117419;1183;21852;-75
2021/08/11 06:04:00;;;;;;;11.30;6.40;;;;;;;28.13;48.94;100296.78;117437;1183;24146;-65
2021/08/11 06:06:30;;;;;;;12.90;7.90;;;;;;;28.32;48.12;100296.75;117446;1181;22648;-66
2021/08/11 06:08:58;;;;;;;8.20;4.70;;;;;;;28.55;48.09;100293.10;117447;1185;21854;-73
2021/08/11 06:11:26;;;;;;;5.90;4.50;;;;;;;28.79;47.53;100294.94;117476;1182;21893;-79
2021/08/11 06:13:54;;;;;;;6.80;4.00;;;;;;;28.98;46.82;100297.80;117372;1182;21854;-65
2021/08/11 06:16:22;;;;;;;4.60;3.30;;;;;;;29.15;46.26;100299.15;117425;1185;22962;-65
2021/08/11 06:18:54;;;;;;;4.20;3.40;;;;;;;29.29;45.88;100291.17;117400;1184;23553;-66
2021/08/11 06:21:24;;;;;;;5.70;3.30;;;;;;;29.39;45.71;100293.27;117373;1185;21855;-76
2021/08/11 06:23:53;;;;;;;4.90;3.30;;;;;;;29.66;45.17;100291.66;117441;1176;21855;-65
2021/08/11 06:26:21;;;;;;;5.10;3.60;;;;;;;29.89;45.10;100290.66;117544;1184;21855;-77
2021/08/11 06:28:50;;;;;;;7.90;4.00;;;;;;;30.06;45.33;100286.30;117450;1182;21855;-67
2021/08/11 06:31:20;;;;;;;5.70;3.70;;;;;;;30.01;45.22;100287.12;117430;1176;21846;-65
2021/08/11 06:33:48;;;;;;;;;;;;;;;30.05;44.80;100283.50;117464;1183;22615;-66
2021/08/11 06:36:16;;;;;;;8.70;3.80;;;;;;;30.17;44.69;100284.38;117356;1186;21864;-71
2021/08/11 06:38:44;;;;;;;4.50;3.40;;;;;;;30.25;44.46;100282.52;117452;1183;21863;-77
2021/08/11 06:41:16;;;;;;;3.90;2.80;;;;;;;30.41;44.17;100273.92;117382;1185;21855;-70
2021/08/11 06:43:45;;;;;;;5.40;3.30;;;;;;;30.60;43.85;100270.30;117431;1183;23454;-70
2021/08/11 06:46:13;;;;;;;5.10;3.30;;;;;;;30.79;43.27;100271.41;117458;1184;21854;-71
2021/08/11 06:48:41;;;;;;;4.90;3.00;;;;;;;30.92;43.03;100271.81;117520;1182;23454;-65
2021/08/11 06:51:09;;;;;;;9.60;3.90;;;;;;;31.02;42.39;100276.85;117409;1185;21851;-70
2021/08/11 06:53:38;;;;;;;6.00;3.00;;;;;;;31.10;42.46;100271.46;117410;1182;21855;-67
2021/08/11 06:56:06;;;;;;;5.00;2.70;;;;;;;31.29;42.23;100270.82;117226;1184;21846;-68
2021/08/11 06:58:36;;;;;;;4.90;3.00;;;;;;;31.58;42.34;100270.80;117463;1182;21854;-61
2021/08/11 07:01:06;;;;;;;4.70;2.60;;;;;;;31.93;41.22;100266.66;117452;1183;21889;-63
2021/08/11 07:03:34;;;;;;;6.20;2.70;;;;;;;32.19;40.82;100261.24;117469;1182;21892;-69
2021/08/11 07:06:03;;;;;;;5.10;2.90;;;;;;;32.36;40.47;100258.45;117476;1182;21850;-68
2021/08/11 07:08:31;;;;;;;4.40;2.80;;;;;;;32.42;39.89;100255.35;117321;1183;21855;-67
2021/08/11 07:10:59;;;;;;;9.80;3.10;;;;;;;32.43;39.63;100255.63;117443;1182;21854;-67
2021/08/11 07:13:27;;;;;;;13.20;3.80;;;;;;;32.54;39.50;100255.20;117438;1183;21860;-71
2021/08/11 07:15:55;;;;;;;4.80;3.00;;;;;;;32.59;38.92;100255.23;117498;1184;21890;-62
2021/08/11 07:18:24;;;;;;;8.80;3.10;;;;;;;32.72;38.78;100255.59;117464;1183;23455;-68
2021/08/11 07:20:52;;;;;;;4.60;2.50;;;;;;;32.86;38.17;100259.42;117383;1182;21864;-69
2021/08/11 07:23:20;;;;;;;6.10;3.00;;;;;;;32.94;38.02;100261.65;117452;1185;21854;-69
2021/08/11 07:25:48;;;;;;;4.80;2.90;;;;;;;33.01;37.59;100261.05;117519;1183;21854;-63
2021/08/11 07:28:16;;;;;;;3.90;2.80;;;;;;;33.01;37.24;100260.27;117471;1185;21888;-71
2021/08/11 07:30:45;;;;;;;4.90;2.60;;;;;;;32.94;36.82;100253.81;117431;1185;22320;-69
2021/08/11 07:33:13;;;;;;;4.70;3.00;;;;;;;32.90;36.86;100247.00;117448;1183;21854;-72
2021/08/11 07:35:42;;;;;;;4.70;3.00;;;;;;;32.86;36.53;100247.06;117403;1185;21854;-65
2021/08/11 07:38:11;;;;;;;4.50;2.60;;;;;;;32.87;36.86;100247.83;117442;1183;21852;-70
2021/08/11 07:40:41;;;;;;;4.20;3.00;;;;;;;33.01;36.85;100242.52;117370;1185;21884;-67
2021/08/11 07:43:10;;;;;;;5.70;2.60;;;;;;;33.18;36.11;100239.55;117429;1183;21901;-68
2021/08/11 07:45:38;;;;;;;6.90;2.80;;;;;;;33.33;36.51;100243.61;117489;1183;21884;-72
2021/08/11 07:48:06;;;;;;;5.00;2.30;;;;;;;33.45;36.15;100239.88;117420;1182;23429;-66
2021/08/11 07:50:37;;;;;;;4.80;2.30;;;;;;;33.53;35.71;100231.96;117375;1184;22329;-69
2021/08/11 07:53:05;;;;;;;9.20;2.90;;;;;;;33.56;35.32;100223.80;117532;1183;21918;-72
2021/08/11 07:55:33;;;;;;;6.40;2.40;;;;;;;33.61;34.67;100224.46;117472;1182;21855;-65
2021/08/11 07:58:02;;;;;;;7.10;2.60;;;;;;;33.74;34.47;100228.67;117424;1183;23459;-64
2021/08/11 08:00:30;;;;;;;6.30;2.20;;;;;;;33.96;34.18;100229.64;117505;1182;21852;-64
2021/08/11 08:02:58;;;;;;;5.90;2.70;;;;;;;34.19;33.43;100224.14;117509;1183;21867;-70
2021/08/11 08:05:27;;;;;;;4.50;2.40;;;;;;;34.44;33.28;100221.43;117654;1182;23608;-66
2021/08/11 08:07:55;;;;;;;7.30;2.70;;;;;;;34.64;32.47;100219.13;117437;1182;23547;-69
2021/08/11 08:10:24;;;;;;;23.60;4.20;;;;;;;34.70;31.95;100218.79;117582;1185;21864;-70
2021/08/11 08:12:52;;;;;;;4.10;1.90;;;;;;;34.80;32.00;100220.38;117491;1182;21855;-66
2021/08/11 08:15:23;;;;;;;5.70;2.20;;;;;;;34.78;31.68;100220.77;117323;1183;23624;-65
2021/08/11 08:17:51;;;;;;;2.70;2.10;;;;;;;34.77;31.55;100219.80;117414;1183;24150;-67
2021/08/11 08:20:20;;;;;;;3.40;2.30;;;;;;;34.79;32.15;100215.86;117399;1182;21854;-63
2021/08/11 08:22:48;;;;;;;8.70;2.50;;;;;;;34.97;31.89;100211.77;117386;1183;22434;-67
2021/08/11 08:25:20;;;;;;;26.00;4.10;;;;;;;35.28;30.69;100208.80;117495;1180;24002;-73
2021/08/11 08:27:49;;;;;;;17.20;3.90;;;;;;;35.59;30.43;100210.64;117560;1185;22130;-67
2021/08/11 08:30:38;;;;;;;157.90;14.60;;;;;;;35.78;30.16;100213.83;117379;1176;21858;-65
2021/08/11 08:33:06;;;;;;;120.30;11.50;;;;;;;35.85;29.76;100206.62;117384;1186;21860;-61
2021/08/11 08:35:34;;;;;;;69.80;8.60;;;;;;;35.91;28.89;100198.77;117395;1185;21857;-62
2021/08/11 08:38:04;;;;;;;61.00;6.40;;;;;;;36.05;28.59;100194.15;117331;1185;21864;-61
2021/08/11 08:40:37;;;;;;;28.00;3.60;;;;;;;36.24;27.92;100201.48;117353;1185;23551;-69
2021/08/11 08:43:06;;;;;;;7.60;2.30;;;;;;;36.20;27.89;100201.77;117351;1182;24132;-60
2021/08/11 08:45:35;;;;;;;12.60;2.30;;;;;;;36.14;27.86;100198.95;117416;1185;21859;-62
2021/08/11 08:48:04;;;;;;;3.70;1.80;;;;;;;36.18;27.47;100199.77;117316;1189;21974;-61
2021/08/11 08:50:33;;;;;;;4.50;1.90;;;;;;;36.28;26.94;100202.40;117352;1183;21858;-69
2021/08/11 08:53:05;;;;;;;10.10;1.90;;;;;;;36.34;27.02;100197.25;117122;1186;22912;-73
2021/08/11 08:55:33;;;;;;;7.50;2.10;;;;;;;36.55;26.89;100191.27;117327;1183;21864;-61
2021/08/11 08:58:02;;;;;;;4.90;2.20;;;;;;;36.68;26.18;100188.69;117377;1182;23560;-61
2021/08/11 09:00:32;;;;;;;4.00;2.70;;;;;;;36.79;26.17;100190.20;117406;1189;21858;-62
2021/08/11 09:03:00;;;;;;;3.00;1.90;;;;;;;36.95;26.10;100188.88;117376;1185;21864;-62
2021/08/11 09:05:29;;;;;;;2.60;1.50;;;;;;;36.96;26.25;100192.23;117343;1182;23430;-63
2021/08/11 09:07:58;;;;;;;4.70;2.10;;;;;;;36.98;25.91;100190.27;117414;1185;23537;-71
2021/08/11 09:10:30;;;;;;;3.90;2.00;;;;;;;36.90;25.78;100190.21;117512;1185;21862;-66
2021/08/11 09:13:06;;;;;;;2.90;1.90;;;;;;;36.93;25.71;100181.05;117334;1182;21866;-63
2021/08/11 09:15:39;;;;;;;4.70;2.00;;;;;;;36.93;25.89;100182.02;117282;1184;22619;-73
2021/08/11 09:18:14;;;;;;;3.70;1.90;;;;;;;36.84;25.88;100178.48;117346;1182;22928;-63
2021/08/11 09:20:48;;;;;;;4.30;2.20;;;;;;;36.91;25.80;100175.20;117348;1182;21864;-73
2021/08/11 09:23:35;;;;;;;11.80;1.80;;;;;;;37.02;25.31;100176.13;117363;1189;21858;-72
2021/08/11 09:26:10;;;;;;;3.60;1.70;;;;;;;37.11;25.26;100179.23;117442;1185;21863;-68
2021/08/11 09:28:41;;;;;;;3.10;1.80;;;;;;;37.26;25.04;100178.17;117384;1185;21868;-61
2021/08/11 09:31:31;;;;;;;5.60;1.70;;;;;;;37.38;24.72;100175.37;117328;1185;21867;-70
2021/08/11 09:34:02;;;;;;;3.80;1.90;;;;;;;37.39;24.23;100171.92;117381;1185;23627;-68
2021/08/11 09:36:49;;;;;;;6.00;1.80;;;;;;;37.35;24.44;100173.70;117415;1182;24157;-70
2021/08/11 09:39:18;;;;;;;7.70;1.90;;;;;;;37.37;24.84;100172.07;117351;1185;21883;-71
2021/08/11 09:42:00;;;;;;;3.60;1.70;;;;;;;37.34;24.69;100176.32;117531;1180;22912;-72
2021/08/11 09:44:29;;;;;;;3.30;1.80;;;;;;;37.34;24.94;100178.10;117324;1182;23539;-73
2021/08/11 09:47:13;;;;;;;8.30;2.10;;;;;;;37.42;24.45;100176.55;117530;1185;21854;-61
2021/08/11 09:49:41;;;;;;;3.60;1.80;;;;;;;37.38;24.33;100177.95;117503;1183;21892;-72
2021/08/11 09:52:09;;;;;;;3.70;1.90;;;;;;;37.35;23.74;100173.58;117352;1183;23451;-67
2021/08/11 09:54:39;;;;;;;3.00;2.10;;;;;;;37.34;24.02;100173.66;117343;1183;22911;-61
2021/08/11 09:57:15;;;;;;;3.80;1.70;;;;;;;37.37;23.83;100173.09;117428;1183;21863;-71
2021/08/11 09:59:59;;;;;;;3.80;1.90;;;;;;;37.51;23.75;100174.46;117353;1185;21949;-71
2021/08/11 10:02:27;;;;;;;2.30;1.60;;;;;;;37.69;23.73;100174.49;117435;1180;23449;-61
2021/08/11 10:04:55;;;;;;;3.50;2.20;;;;;;;37.91;23.30;100175.73;117418;1185;21890;-72
2021/08/11 10:07:24;;;;;;;11.80;2.60;;;;;;;38.01;23.56;100178.17;117388;1182;21868;-68
2021/08/11 10:10:06;;;;;;;5.90;2.20;;;;;;;37.92;22.89;100179.14;117280;1185;21855;-67
2021/08/11 10:12:35;;;;;;;2.70;1.80;;;;;;;37.70;23.60;100180.63;117504;1182;21854;-66
2021/08/11 10:15:04;;;;;;;2.80;1.80;;;;;;;37.49;23.60;100183.11;117561;1182;21864;-68
2021/08/11 10:17:34;;;;;;;8.00;2.10;;;;;;;37.31;23.79;100183.43;117590;1185;21842;-68
2021/08/11 10:20:12;;;;;;;5.70;2.00;;;;;;;37.18;23.90;100182.75;117483;1185;22052;-67
2021/08/11 10:22:40;;;;;;;9.30;2.20;;;;;;;36.99;23.41;100182.13;117455;1182;21845;-68
2021/08/11 10:25:09;;;;;;;4.30;2.50;;;;;;;36.96;24.16;100182.05;117421;1182;23451;-65
2021/08/11 10:27:42;;;;;;;5.30;1.80;;;;;;;36.99;24.39;100176.52;117079;1185;21858;-68
2021/08/11 10:30:11;;;;;;;3.60;2.30;;;;;;;36.93;24.28;100174.16;117493;1184;21871;-68
2021/08/11 10:32:39;;;;;;;5.20;2.10;;;;;;;36.90;25.08;100175.81;117554;1183;22997;-68
2021/08/11 10:35:08;;;;;;;6.00;2.10;;;;;;;36.97;25.04;100177.76;117493;1182;21855;-66
2021/08/11 10:37:36;;;;;;;3.20;2.10;;;;;;;37.05;25.06;100181.86;117338;1182;23558;-68
2021/08/11 10:40:05;;;;;;;3.90;2.00;;;;;;;37.13;24.60;100179.55;117422;1186;23632;-71
2021/08/11 10:42:34;;;;;;;3.20;2.10;;;;;;;37.36;24.12;100183.68;117429;1185;21858;-70
2021/08/11 10:45:03;;;;;;;7.50;2.10;;;;;;;37.38;23.91;100187.23;117415;1176;22014;-66
2021/08/11 10:47:32;;;;;;;4.10;1.70;;;;;;;37.29;24.13;100187.69;117478;1186;22905;-68
2021/08/11 10:50:05;;;;;;;3.30;1.90;;;;;;;37.27;24.20;100191.57;117538;1183;22106;-65
2021/08/11 10:52:33;;;;;;;11.60;2.40;;;;;;;37.29;23.65;100193.14;117513;1182;21871;-69
2021/08/11 10:55:04;;;;;;;4.30;2.10;;;;;;;37.30;23.69;100187.61;117321;1185;22098;-63
2021/08/11 10:57:35;;;;;;;2.70;1.80;;;;;;;37.22;23.58;100185.10;117533;1182;22980;-68
2021/08/11 11:00:28;;;;;;;3.90;1.80;;;;;;;37.20;23.61;100179.30;117387;1180;22911;-65
2021/08/11 11:02:57;;;;;;;5.40;2.30;;;;;;;37.38;23.73;100183.10;117460;1184;23438;-67
2021/08/11 11:05:31;;;;;;;3.80;1.90;;;;;;;37.46;23.53;100173.85;117537;1183;21891;-67
2021/08/11 11:08:15;;;;;;;4.40;2.20;;;;;;;37.48;23.95;100172.69;117404;1183;22264;-72
2021/08/11 11:10:44;;;;;;;3.40;2.20;;;;;;;37.59;23.75;100176.27;117440;1183;22099;-67
2021/08/11 11:13:29;;;;;;;5.60;2.10;;;;;;;37.35;23.52;100176.83;117530;1182;21898;-66
2021/08/11 11:15:59;;;;;;;2.80;1.90;;;;;;;37.04;23.88;100177.13;117370;1182;22911;-65
2021/08/11 11:18:27;;;;;;;3.60;2.00;;;;;;;37.03;23.57;100171.67;117316;1185;22918;-67
2021/08/11 11:20:56;;;;;;;4.60;2.30;;;;;;;36.98;23.27;100165.67;117554;1185;24136;-67
2021/08/11 11:23:32;;;;;;;3.60;2.40;;;;;;;37.22;23.67;100164.84;117513;1182;24159;-68
2021/08/11 11:26:05;;;;;;;4.20;2.70;;;;;;;37.88;23.04;100162.77;117405;1183;21857;-63
2021/08/11 11:29:03;;;;;;;4.90;2.60;;;;;;;37.53;23.35;100162.89;117378;1183;21847;-62
2021/08/11 11:31:47;;;;;;;5.90;2.40;;;;;;;37.54;23.24;100162.89;117361;1185;21858;-71